Andrews, South Carolina
Current Conditions -  °F | °C
As of 4:15 PM on Monday 22 Dec 2014 (Local Time) from KCKI Reporting Station
NA  
Wind Chill: 45°   Ceiling: NA
Heat Index: 45°   Visibility: 10mi
Dew Point: 45°   Wind: 3mph
Humidity: 100%   Direction: 360°N
Pressure: 30"   Gusts: NA
Location:  33.45°N, 79.56°W
Report Text: KCKI 222115Z AUTO 36003KT 10SM 07/07 A3000 RMK AO2
Loading
Personal Weather Stations






























Interactive Weather Map New forecast layout! Learn more

10-Day Weather Forecast

Advertisements
Track Severe Weather on mobile